Time;durP1;ratioP1;P1;durP2;ratioP2;P2;SDS_P1;SDS_P2;PMS_P1;PMS_P2;Temp;Humidity;BMP_temperature;BMP_pressure;BME280_temperature;BME280_humidity;BME280_pressure;Samples;Min_cycle;Max_cycle;Signal;HPM_P1;HPM_P2
2022/01/18 00:00:19;;;;;;;5.68;1.60;;;;;;;;;;4939065;29;20047;-69
2022/01/18 00:02:45;;;;;;;8.57;1.40;;;;;;;;;;4939077;29;20488;-68
2022/01/18 00:05:14;;;;;;;3.15;1.13;;;;;;;;;;4937558;29;20040;-68
2022/01/18 00:07:41;;;;;;;6.43;1.35;;;;;;;;;;4938777;29;20385;-68
2022/01/18 00:10:07;;;;;;;7.88;1.58;;;;;;;;;;4937590;29;20412;-69
2022/01/18 00:18:22;;;;;;;6.20;1.20;;;;;;;;;;4939293;29;20460;-69
2022/01/18 00:23:10;;;;;;;6.25;1.45;;;;;;;;;;4938352;29;20111;-69
2022/01/18 00:25:40;;;;;;;5.38;1.67;;;;;;;;;;4920740;29;20064;-69
2022/01/18 00:28:07;;;;;;;6.47;1.55;;;;;;;;;;4921310;29;20042;-69
2022/01/18 00:33:24;;;;;;;5.63;1.70;;;;;;;;;;4938481;29;20087;-69
2022/01/18 00:35:58;;;;;;;8.40;1.58;;;;;;;;;;4921297;29;20059;-68
2022/01/18 00:41:21;;;;;;;8.20;1.58;;;;;;;;;;4929541;29;20105;-68
2022/01/18 00:43:48;;;;;;;3.75;1.40;;;;;;;;;;4921136;29;20114;-68
2022/01/18 00:46:15;;;;;;;7.40;1.05;;;;;;;;;;4921068;29;20412;-69
2022/01/18 00:48:42;;;;;;;6.47;1.27;;;;;;;;;;4938248;29;20067;-69
2022/01/18 00:51:11;;;;;;;7.07;1.52;;;;;;;;;;4920940;29;20400;-69
2022/01/18 00:53:38;;;;;;;10.23;1.40;;;;;;;;;;4938066;29;20110;-69
2022/01/18 00:56:22;;;;;;;6.82;1.35;;;;;;;;;;4920990;29;20028;-69
2022/01/18 00:58:49;;;;;;;7.30;1.45;;;;;;;;;;4920981;29;20114;-69
2022/01/18 01:01:16;;;;;;;9.63;1.58;;;;;;;;;;4920852;29;20441;-68
2022/01/18 01:03:43;;;;;;;8.05;1.38;;;;;;;;;;4920773;29;20027;-69
2022/01/18 01:06:09;;;;;;;6.47;1.60;;;;;;;;;;4920804;29;20560;-69
2022/01/18 01:08:35;;;;;;;11.05;1.30;;;;;;;;;;4920588;29;20144;-69
2022/01/18 01:11:02;;;;;;;11.07;1.85;;;;;;;;;;4924753;29;20040;-68
2022/01/18 01:13:30;;;;;;;8.27;1.67;;;;;;;;;;4924827;29;20036;-68
2022/01/18 01:35:05;;;;;;;6.13;1.13;;;;;;;;;;4937695;29;20445;-69
2022/01/18 01:45:20;;;;;;;8.75;1.60;;;;;;;;;;4937378;29;20043;-69
2022/01/18 01:47:50;;;;;;;6.05;1.10;;;;;;;;;;4919898;29;20462;-69
2022/01/18 01:50:19;;;;;;;10.73;1.52;;;;;;;;;;4919943;29;20027;-68
2022/01/18 01:52:46;;;;;;;5.95;1.02;;;;;;;;;;4919996;29;20055;-69
2022/01/18 01:55:12;;;;;;;9.52;1.70;;;;;;;;;;4936755;29;20039;-69
2022/01/18 01:57:38;;;;;;;12.80;1.40;;;;;;;;;;4919825;29;20031;-69
2022/01/18 02:00:06;;;;;;;2.92;0.95;;;;;;;;;;4919785;29;20114;-69
2022/01/18 02:02:32;;;;;;;3.50;1.38;;;;;;;;;;4919677;29;20433;-69
2022/01/18 02:04:58;;;;;;;9.77;1.60;;;;;;;;;;4919582;29;20492;-69
2022/01/18 02:07:24;;;;;;;10.88;2.22;;;;;;;;;;4919606;29;20035;-69
2022/01/18 02:09:50;;;;;;;8.23;1.98;;;;;;;;;;4919555;29;20058;-69
2022/01/18 02:12:17;;;;;;;5.80;1.85;;;;;;;;;;4919635;29;20024;-68
2022/01/18 02:14:49;;;;;;;6.25;1.40;;;;;;;;;;4919518;29;20032;-68
2022/01/18 02:22:52;;;;;;;7.80;1.65;;;;;;;;;;4936323;29;20411;-68
2022/01/18 02:25:18;;;;;;;6.53;1.67;;;;;;;;;;4919407;29;20362;-69
2022/01/18 02:27:44;;;;;;;5.15;1.42;;;;;;;;;;4919510;29;20445;-69
2022/01/18 02:30:11;;;;;;;15.73;1.58;;;;;;;;;;4919302;29;20075;-68
2022/01/18 02:32:37;;;;;;;9.02;1.83;;;;;;;;;;4936429;29;20032;-68
2022/01/18 02:35:04;;;;;;;6.75;1.58;;;;;;;;;;4936197;29;20079;-68
2022/01/18 02:37:30;;;;;;;8.30;1.52;;;;;;;;;;4919247;29;20031;-68
2022/01/18 02:39:56;;;;;;;14.43;1.98;;;;;;;;;;4919175;29;20508;-68
2022/01/18 02:42:27;;;;;;;10.20;1.88;;;;;;;;;;4919191;29;20027;-69
2022/01/18 02:44:53;;;;;;;15.20;2.38;;;;;;;;;;4919093;29;20020;-69
2022/01/18 02:47:20;;;;;;;9.35;1.67;;;;;;;;;;4919091;29;20046;-69
2022/01/18 02:49:47;;;;;;;8.80;1.77;;;;;;;;;;4919142;29;20042;-69
2022/01/18 02:52:15;;;;;;;8.98;2.25;;;;;;;;;;4919094;29;20416;-70
2022/01/18 02:54:41;;;;;;;10.68;1.70;;;;;;;;;;4919086;29;20031;-69
2022/01/18 02:57:12;;;;;;;11.57;2.13;;;;;;;;;;4921570;29;20068;-69
2022/01/18 02:59:56;;;;;;;5.80;1.48;;;;;;;;;;4923566;29;20031;-69
2022/01/18 03:05:09;;;;;;;11.95;1.80;;;;;;;;;;4935968;29;20039;-69
2022/01/18 03:07:36;;;;;;;9.85;1.95;;;;;;;;;;4935960;29;20050;-69
2022/01/18 03:10:03;;;;;;;13.57;2.53;;;;;;;;;;4918865;29;20404;-69
2022/01/18 03:12:29;;;;;;;8.23;1.60;;;;;;;;;;4918877;29;20063;-69
2022/01/18 03:14:55;;;;;;;10.70;1.25;;;;;;;;;;4935833;29;20032;-68
2022/01/18 03:17:21;;;;;;;9.40;1.73;;;;;;;;;;4935932;29;20105;-70
2022/01/18 03:19:48;;;;;;;10.05;1.67;;;;;;;;;;4918759;29;20039;-69
2022/01/18 03:22:14;;;;;;;10.38;1.58;;;;;;;;;;4924780;29;20130;-68
2022/01/18 03:30:14;;;;;;;12.57;2.35;;;;;;;;;;4936093;29;20091;-68
2022/01/18 03:32:40;;;;;;;7.13;1.55;;;;;;;;;;4934574;29;20472;-68
2022/01/18 03:35:08;;;;;;;7.45;1.67;;;;;;;;;;4935680;29;20498;-68
2022/01/18 03:37:34;;;;;;;14.73;2.75;;;;;;;;;;4934509;29;20070;-68
2022/01/18 03:40:00;;;;;;;8.35;1.92;;;;;;;;;;4934377;29;20454;-68
2022/01/18 03:45:27;;;;;;;12.48;1.75;;;;;;;;;;4927022;29;20032;-69
2022/01/18 03:47:55;;;;;;;10.23;2.17;;;;;;;;;;4934326;29;20028;-69
2022/01/18 03:50:21;;;;;;;8.68;1.77;;;;;;;;;;4934642;29;20035;-69
2022/01/18 03:52:47;;;;;;;9.40;1.40;;;;;;;;;;4935797;29;20031;-68
2022/01/18 03:55:15;;;;;;;11.80;2.25;;;;;;;;;;4935500;29;20610;-68
2022/01/18 03:57:41;;;;;;;16.75;1.73;;;;;;;;;;4934373;29;20024;-68
2022/01/18 04:00:09;;;;;;;12.85;2.00;;;;;;;;;;4934330;29;20119;-69
2022/01/18 04:02:35;;;;;;;15.70;2.08;;;;;;;;;;4937506;29;20028;-69
2022/01/18 04:05:01;;;;;;;10.25;1.75;;;;;;;;;;4937600;29;20171;-69
2022/01/18 04:07:27;;;;;;;9.85;1.63;;;;;;;;;;4937600;29;20458;-68
2022/01/18 04:09:53;;;;;;;10.38;1.67;;;;;;;;;;4937615;29;20036;-69
2022/01/18 04:12:20;;;;;;;11.10;2.28;;;;;;;;;;4937585;29;20370;-69
2022/01/18 04:14:46;;;;;;;8.13;1.23;;;;;;;;;;4937495;29;20516;-69
2022/01/18 04:17:31;;;;;;;12.27;1.90;;;;;;;;;;4937400;29;20066;-69
2022/01/18 04:28:32;;;;;;;9.32;1.92;;;;;;;;;;4938729;29;20555;-68
2022/01/18 04:30:58;;;;;;;9.95;1.92;;;;;;;;;;4938216;29;20032;-68
2022/01/18 04:33:24;;;;;;;11.80;2.35;;;;;;;;;;4921439;29;20130;-68
2022/01/18 04:35:50;;;;;;;16.58;1.88;;;;;;;;;;4938399;29;20027;-68
2022/01/18 04:38:16;;;;;;;13.63;2.50;;;;;;;;;;4921218;29;20046;-69
2022/01/18 04:40:45;;;;;;;17.95;2.33;;;;;;;;;;4921253;29;20024;-69
2022/01/18 04:48:30;;;;;;;5.35;1.65;;;;;;;;;;4938183;29;20082;-69
2022/01/18 04:50:58;;;;;;;11.20;2.28;;;;;;;;;;4938109;29;20031;-68
2022/01/18 04:53:26;;;;;;;10.07;2.22;;;;;;;;;;4921017;29;20031;-69
2022/01/18 04:55:55;;;;;;;11.00;2.08;;;;;;;;;;4920886;29;20034;-69
2022/01/18 04:58:25;;;;;;;12.43;2.40;;;;;;;;;;4921158;29;20385;-69
2022/01/18 05:00:53;;;;;;;9.30;2.13;;;;;;;;;;4920816;29;20135;-69
2022/01/18 05:03:19;;;;;;;9.35;2.20;;;;;;;;;;4937826;29;20035;-69
2022/01/18 05:05:48;;;;;;;11.98;2.30;;;;;;;;;;4938201;29;20035;-69
2022/01/18 05:08:14;;;;;;;14.25;2.47;;;;;;;;;;4920650;29;20059;-69
2022/01/18 05:10:41;;;;;;;8.25;2.15;;;;;;;;;;4920679;29;20032;-69
2022/01/18 05:13:20;;;;;;;12.55;3.65;;;;;;;;;;4920367;29;20028;-69
2022/01/18 05:15:53;;;;;;;13.60;2.00;;;;;;;;;;4920588;29;20031;-68
2022/01/18 05:23:24;;;;;;;9.85;1.80;;;;;;;;;;4937386;29;20040;-68
2022/01/18 05:25:50;;;;;;;11.85;2.50;;;;;;;;;;4937758;29;20034;-69
2022/01/18 05:28:17;;;;;;;7.88;1.77;;;;;;;;;;4937580;29;20469;-69
2022/01/18 05:30:43;;;;;;;11.63;2.20;;;;;;;;;;4937371;29;20171;-70
2022/01/18 05:33:09;;;;;;;10.23;2.17;;;;;;;;;;4920134;29;20551;-70
2022/01/18 05:35:35;;;;;;;13.25;1.88;;;;;;;;;;4920154;29;20024;-69
2022/01/18 05:38:01;;;;;;;8.30;2.10;;;;;;;;;;4937119;29;20035;-69
2022/01/18 05:40:28;;;;;;;4.85;1.73;;;;;;;;;;4920044;29;20038;-69
2022/01/18 05:42:54;;;;;;;11.38;2.38;;;;;;;;;;4920093;29;20031;-68
2022/01/18 05:45:20;;;;;;;11.65;2.40;;;;;;;;;;4919878;29;20107;-69
2022/01/18 05:47:46;;;;;;;13.25;2.05;;;;;;;;;;4919931;29;20567;-69
2022/01/18 05:50:13;;;;;;;19.13;2.35;;;;;;;;;;4919932;29;20046;-69
2022/01/18 05:52:40;;;;;;;14.10;2.58;;;;;;;;;;4920001;29;20043;-68
2022/01/18 05:55:06;;;;;;;15.98;2.33;;;;;;;;;;4936926;29;20038;-69
2022/01/18 05:57:33;;;;;;;11.02;1.92;;;;;;;;;;4937111;29;20376;-69
2022/01/18 06:00:05;;;;;;;12.13;2.90;;;;;;;;;;4919789;29;20540;-69
2022/01/18 06:07:51;;;;;;;14.15;1.95;;;;;;;;;;4936976;29;20057;-68
2022/01/18 06:10:18;;;;;;;9.60;2.10;;;;;;;;;;4936698;29;20023;-69
2022/01/18 06:12:44;;;;;;;10.77;2.50;;;;;;;;;;4919477;29;20032;-68
2022/01/18 06:15:10;;;;;;;13.52;3.13;;;;;;;;;;4937062;29;20030;-69
2022/01/18 06:17:38;;;;;;;11.82;2.63;;;;;;;;;;4936820;29;20031;-69
2022/01/18 06:20:04;;;;;;;17.33;3.65;;;;;;;;;;4919527;29;20074;-69
2022/01/18 06:22:30;;;;;;;11.13;2.47;;;;;;;;;;4927181;29;20052;-69
2022/01/18 06:24:56;;;;;;;16.52;2.13;;;;;;;;;;4934623;29;20024;-68
2022/01/18 06:27:23;;;;;;;8.55;2.65;;;;;;;;;;4935659;29;20046;-68
2022/01/18 06:29:49;;;;;;;8.80;1.92;;;;;;;;;;4937798;29;20504;-68
2022/01/18 06:32:15;;;;;;;9.63;2.65;;;;;;;;;;4940584;29;20436;-69
2022/01/18 06:34:41;;;;;;;14.80;2.70;;;;;;;;;;4935116;29;20059;-69
2022/01/18 06:37:07;;;;;;;10.88;2.67;;;;;;;;;;4936251;29;20145;-69
2022/01/18 06:39:34;;;;;;;14.60;2.28;;;;;;;;;;4935018;29;20031;-70
2022/01/18 06:42:00;;;;;;;9.20;2.70;;;;;;;;;;4935053;29;20024;-69
2022/01/18 06:44:26;;;;;;;15.27;2.53;;;;;;;;;;4934930;29;20110;-69
2022/01/18 06:46:53;;;;;;;12.30;2.53;;;;;;;;;;4935112;29;20067;-70
2022/01/18 06:49:19;;;;;;;12.00;2.22;;;;;;;;;;4936255;29;20063;-70
2022/01/18 06:51:45;;;;;;;8.35;2.17;;;;;;;;;;4935223;29;20119;-69
2022/01/18 06:54:16;;;;;;;18.67;2.70;;;;;;;;;;4934794;29;20448;-70
2022/01/18 06:56:44;;;;;;;13.98;2.58;;;;;;;;;;4936156;29;20087;-70
2022/01/18 06:59:11;;;;;;;9.95;2.20;;;;;;;;;;4934787;29;20038;-70
2022/01/18 07:01:37;;;;;;;20.48;2.90;;;;;;;;;;4978420;23;20127;-69
2022/01/18 07:04:04;;;;;;;15.15;2.65;;;;;;;;;;4935793;29;20028;-69
2022/01/18 07:06:30;;;;;;;9.88;3.13;;;;;;;;;;4918847;29;20059;-69
2022/01/18 07:08:56;;;;;;;8.88;2.10;;;;;;;;;;4918784;29;20481;-69
2022/01/18 07:11:22;;;;;;;11.43;2.55;;;;;;;;;;4918940;29;20028;-69
2022/01/18 07:13:48;;;;;;;10.50;1.90;;;;;;;;;;4935914;29;20107;-69
2022/01/18 07:16:14;;;;;;;9.38;2.30;;;;;;;;;;4935973;29;20027;-69
2022/01/18 07:18:40;;;;;;;8.55;1.90;;;;;;;;;;4935797;29;20031;-69
2022/01/18 07:21:09;;;;;;;11.45;2.35;;;;;;;;;;4936327;29;20024;-69
2022/01/18 07:23:35;;;;;;;8.50;2.95;;;;;;;;;;4935935;29;20493;-70
2022/01/18 07:26:01;;;;;;;9.18;2.58;;;;;;;;;;4918953;29;20110;-70
2022/01/18 07:28:27;;;;;;;10.18;2.28;;;;;;;;;;4935845;29;20155;-70
2022/01/18 07:30:53;;;;;;;12.52;2.53;;;;;;;;;;4918724;29;20153;-69
2022/01/18 07:33:20;;;;;;;10.52;3.20;;;;;;;;;;4918624;29;20032;-68
2022/01/18 07:35:47;;;;;;;14.38;2.88;;;;;;;;;;4937993;29;20075;-70
2022/01/18 07:38:16;;;;;;;10.35;2.60;;;;;;;;;;4922315;29;20031;-69
2022/01/18 07:40:43;;;;;;;15.13;2.95;;;;;;;;;;4922070;29;20114;-69
2022/01/18 07:43:10;;;;;;;11.27;2.63;;;;;;;;;;4922222;29;20039;-69
2022/01/18 07:45:36;;;;;;;11.20;2.15;;;;;;;;;;4922142;29;20485;-70
2022/01/18 07:48:02;;;;;;;11.60;2.50;;;;;;;;;;4939196;29;20027;-70
2022/01/18 07:50:28;;;;;;;12.82;2.28;;;;;;;;;;4921968;29;20425;-70
2022/01/18 07:52:56;;;;;;;9.43;2.20;;;;;;;;;;4939311;29;20082;-69
2022/01/18 07:55:22;;;;;;;8.68;1.63;;;;;;;;;;4922461;29;20118;-70
2022/01/18 07:57:48;;;;;;;13.55;2.63;;;;;;;;;;4921940;29;20498;-70
2022/01/18 08:00:16;;;;;;;7.32;1.92;;;;;;;;;;4921985;29;20031;-69
2022/01/18 08:02:42;;;;;;;11.38;2.20;;;;;;;;;;4933670;29;20059;-70
2022/01/18 08:05:09;;;;;;;15.25;2.58;;;;;;;;;;4937676;29;20028;-69
2022/01/18 08:07:35;;;;;;;7.85;1.98;;;;;;;;;;4937642;29;20035;-69
2022/01/18 08:10:03;;;;;;;5.97;1.67;;;;;;;;;;4937489;29;20038;-69
2022/01/18 08:12:29;;;;;;;6.50;1.52;;;;;;;;;;4937501;29;20031;-68
2022/01/18 08:15:01;;;;;;;8.65;1.48;;;;;;;;;;4938096;29;20028;-69
2022/01/18 08:17:27;;;;;;;8.60;2.00;;;;;;;;;;4937538;29;20075;-69
2022/01/18 08:19:53;;;;;;;5.57;0.88;;;;;;;;;;4938750;29;20118;-69
2022/01/18 08:22:19;;;;;;;4.70;0.60;;;;;;;;;;4937342;29;20126;-69
2022/01/18 08:24:45;;;;;;;6.18;1.33;;;;;;;;;;4937255;29;20035;-69
2022/01/18 08:27:11;;;;;;;5.18;1.15;;;;;;;;;;4941557;29;20394;-68
2022/01/18 08:29:37;;;;;;;8.40;1.13;;;;;;;;;;4941980;29;20032;-69
2022/01/18 08:32:04;;;;;;;9.63;1.50;;;;;;;;;;4937322;29;20373;-70
2022/01/18 08:34:30;;;;;;;10.73;1.25;;;;;;;;;;4938400;29;20036;-69
2022/01/18 08:36:57;;;;;;;8.55;1.02;;;;;;;;;;4937122;29;20024;-70
2022/01/18 08:39:23;;;;;;;3.60;1.20;;;;;;;;;;4937064;29;20074;-69
2022/01/18 08:41:49;;;;;;;3.55;0.88;;;;;;;;;;4937130;29;20072;-70
2022/01/18 08:44:15;;;;;;;8.32;1.67;;;;;;;;;;4938219;29;20047;-69
2022/01/18 08:46:42;;;;;;;10.98;1.30;;;;;;;;;;4937561;29;20058;-68
2022/01/18 08:49:08;;;;;;;8.32;1.50;;;;;;;;;;4936881;29;20046;-69
2022/01/18 08:51:35;;;;;;;5.30;1.17;;;;;;;;;;4938175;29;20024;-69
2022/01/18 08:54:01;;;;;;;7.80;1.33;;;;;;;;;;4936862;29;20079;-69
2022/01/18 08:56:29;;;;;;;5.00;1.42;;;;;;;;;;4936692;29;20059;-69
2022/01/18 08:58:55;;;;;;;7.55;1.50;;;;;;;;;;4936743;29;20035;-70
2022/01/18 09:01:21;;;;;;;6.18;1.27;;;;;;;;;;4938141;29;20059;-70
2022/01/18 09:03:49;;;;;;;9.38;1.83;;;;;;;;;;4938068;29;20095;-70
2022/01/18 09:06:16;;;;;;;5.70;1.48;;;;;;;;;;4920787;29;20034;-71
2022/01/18 09:08:43;;;;;;;8.43;1.70;;;;;;;;;;4920337;29;20047;-70
2022/01/18 09:11:11;;;;;;;4.75;1.30;;;;;;;;;;4920624;29;20046;-70
2022/01/18 09:13:37;;;;;;;4.80;1.73;;;;;;;;;;4920690;29;20370;-70
2022/01/18 09:16:06;;;;;;;11.57;1.70;;;;;;;;;;4937613;29;20066;-70
2022/01/18 09:18:32;;;;;;;6.13;1.70;;;;;;;;;;4920477;29;20031;-69
2022/01/18 09:20:59;;;;;;;7.80;1.85;;;;;;;;;;4937519;29;20111;-69
2022/01/18 09:23:25;;;;;;;12.38;1.75;;;;;;;;;;4937500;29;20106;-70
2022/01/18 09:25:51;;;;;;;7.15;1.40;;;;;;;;;;4920454;29;20122;-70
2022/01/18 09:28:17;;;;;;;6.28;1.42;;;;;;;;;;4920447;29;20042;-69
2022/01/18 09:30:43;;;;;;;8.70;1.17;;;;;;;;;;4937072;29;20413;-69
2022/01/18 09:33:09;;;;;;;7.50;1.30;;;;;;;;;;4920817;29;20035;-69
2022/01/18 09:35:36;;;;;;;7.70;1.30;;;;;;;;;;4920144;29;20024;-69
2022/01/18 09:38:03;;;;;;;3.83;1.00;;;;;;;;;;4919951;29;20118;-68
2022/01/18 09:40:30;;;;;;;6.22;1.23;;;;;;;;;;4919072;29;20020;-70
2022/01/18 09:43:00;;;;;;;9.52;1.33;;;;;;;;;;4919898;29;20110;-70
2022/01/18 09:45:27;;;;;;;6.15;1.38;;;;;;;;;;4919986;29;20030;-70
2022/01/18 09:47:54;;;;;;;7.55;1.48;;;;;;;;;;4920153;29;20031;-70
2022/01/18 09:50:22;;;;;;;9.73;1.48;;;;;;;;;;4937043;29;20114;-70
2022/01/18 09:52:53;;;;;;;6.57;1.60;;;;;;;;;;4920021;29;20106;-70
2022/01/18 09:55:20;;;;;;;3.95;1.25;;;;;;;;;;4937080;29;20023;-70
2022/01/18 09:57:46;;;;;;;6.75;1.33;;;;;;;;;;4919494;29;20031;-70
2022/01/18 10:00:12;;;;;;;5.47;1.73;;;;;;;;;;4919329;29;20091;-70
2022/01/18 10:02:38;;;;;;;7.50;1.58;;;;;;;;;;4930819;29;20064;-69
2022/01/18 10:05:20;;;;;;;5.18;1.40;;;;;;;;;;4935529;29;20043;-69
2022/01/18 10:07:54;;;;;;;7.30;1.50;;;;;;;;;;4935460;29;20109;-70
2022/01/18 10:10:21;;;;;;;5.40;1.40;;;;;;;;;;4936723;29;20040;-70
2022/01/18 10:12:55;;;;;;;12.90;2.08;;;;;;;;;;4935327;29;20038;-70
2022/01/18 10:15:22;;;;;;;6.88;1.85;;;;;;;;;;4935492;29;20027;-70
2022/01/18 10:17:48;;;;;;;8.93;1.75;;;;;;;;;;4935324;29;20034;-70
2022/01/18 10:20:19;;;;;;;7.97;1.98;;;;;;;;;;4935336;29;20028;-70
2022/01/18 10:22:49;;;;;;;5.20;1.60;;;;;;;;;;4937447;29;20055;-71
2022/01/18 10:25:18;;;;;;;7.30;1.40;;;;;;;;;;4937615;29;20063;-70
2022/01/18 10:27:47;;;;;;;8.80;1.60;;;;;;;;;;4935250;29;20055;-69
2022/01/18 10:30:21;;;;;;;6.82;2.10;;;;;;;;;;4936270;29;20034;-69
2022/01/18 10:33:07;;;;;;;9.18;2.03;;;;;;;;;;4934876;29;20039;-69
2022/01/18 10:35:33;;;;;;;8.52;1.73;;;;;;;;;;4935794;29;20110;-69
2022/01/18 10:38:00;;;;;;;7.78;2.08;;;;;;;;;;4936509;29;20082;-69
2022/01/18 10:40:26;;;;;;;7.65;1.83;;;;;;;;;;4934901;29;20051;-69
2022/01/18 10:42:54;;;;;;;8.18;2.13;;;;;;;;;;4934993;29;20032;-69
2022/01/18 10:45:30;;;;;;;7.95;2.03;;;;;;;;;;4934977;29;20421;-69
2022/01/18 10:48:00;;;;;;;8.88;1.70;;;;;;;;;;4935871;29;20028;-69
2022/01/18 10:50:30;;;;;;;8.55;1.75;;;;;;;;;;4934820;29;20034;-69
2022/01/18 10:53:10;;;;;;;4.07;0.90;;;;;;;;;;4935485;29;20056;-69
2022/01/18 10:55:36;;;;;;;8.63;1.83;;;;;;;;;;4934933;29;20028;-69
2022/01/18 10:58:09;;;;;;;6.50;1.88;;;;;;;;;;4934838;29;20035;-69
2022/01/18 11:00:35;;;;;;;9.02;1.77;;;;;;;;;;4936014;29;20515;-69
2022/01/18 11:03:04;;;;;;;4.82;1.50;;;;;;;;;;4935880;29;20052;-67
2022/01/18 11:05:32;;;;;;;6.32;1.70;;;;;;;;;;4918969;29;20034;-69
2022/01/18 11:08:03;;;;;;;12.02;2.15;;;;;;;;;;4919143;29;20079;-69
2022/01/18 11:10:34;;;;;;;5.43;1.50;;;;;;;;;;4920550;29;20118;-69
2022/01/18 11:13:09;;;;;;;4.53;0.98;;;;;;;;;;4922705;29;20027;-69
2022/01/18 11:15:37;;;;;;;8.43;1.98;;;;;;;;;;4922812;29;20039;-70
2022/01/18 11:18:07;;;;;;;7.28;2.50;;;;;;;;;;4922770;29;20033;-68
2022/01/18 11:20:38;;;;;;;7.53;1.90;;;;;;;;;;4939702;29;20027;-69
2022/01/18 11:23:05;;;;;;;6.45;1.63;;;;;;;;;;4922361;29;20062;-69
2022/01/18 11:25:32;;;;;;;6.63;2.00;;;;;;;;;;4922620;29;20036;-67
2022/01/18 11:27:59;;;;;;;8.50;1.77;;;;;;;;;;4922504;29;20030;-69
2022/01/18 11:30:29;;;;;;;11.95;2.28;;;;;;;;;;4939543;29;20032;-69
2022/01/18 11:32:56;;;;;;;8.95;1.83;;;;;;;;;;4922507;29;20031;-70
2022/01/18 11:35:27;;;;;;;10.10;2.53;;;;;;;;;;4922439;29;20035;-69
2022/01/18 11:38:05;;;;;;;13.60;2.63;;;;;;;;;;4939695;29;20546;-69
2022/01/18 11:40:45;;;;;;;5.90;1.80;;;;;;;;;;4939382;29;20031;-68
2022/01/18 11:43:11;;;;;;;12.70;2.13;;;;;;;;;;4922230;29;20019;-69
2022/01/18 11:45:39;;;;;;;14.20;1.70;;;;;;;;;;4922225;29;20035;-69
2022/01/18 11:48:05;;;;;;;7.80;1.60;;;;;;;;;;4922137;29;20083;-68
2022/01/18 11:50:52;;;;;;;9.60;1.92;;;;;;;;;;4922004;29;20039;-68
2022/01/18 11:53:28;;;;;;;8.73;2.00;;;;;;;;;;4909117;29;20374;-70
2022/01/18 11:55:56;;;;;;;7.53;1.80;;;;;;;;;;4922104;29;20091;-69
2022/01/18 11:58:22;;;;;;;8.82;2.13;;;;;;;;;;4922000;29;20031;-69
2022/01/18 12:00:49;;;;;;;7.70;1.90;;;;;;;;;;4921718;29;20059;-69
2022/01/18 12:03:35;;;;;;;10.00;2.58;;;;;;;;;;4921857;29;20498;-68
2022/01/18 12:06:03;;;;;;;7.97;2.10;;;;;;;;;;4909122;29;20055;-69
2022/01/18 12:08:31;;;;;;;5.63;1.77;;;;;;;;;;4938826;29;20032;-68
2022/01/18 12:10:57;;;;;;;14.30;2.88;;;;;;;;;;4921843;29;20126;-69
2022/01/18 12:13:24;;;;;;;9.73;2.83;;;;;;;;;;4921766;29;20071;-69
2022/01/18 12:15:51;;;;;;;14.02;3.58;;;;;;;;;;4922368;29;20036;-69
2022/01/18 12:18:22;;;;;;;8.30;2.40;;;;;;;;;;4942723;29;20056;-68
2022/01/18 12:20:49;;;;;;;9.93;2.17;;;;;;;;;;4921298;29;20024;-69
2022/01/18 12:23:21;;;;;;;10.77;2.08;;;;;;;;;;4920890;29;20469;-69
2022/01/18 12:26:15;;;;;;;7.47;2.35;;;;;;;;;;4938710;29;20026;-69
2022/01/18 12:29:19;;;;;;;10.85;1.95;;;;;;;;;;4938408;29;20098;-69
2022/01/18 12:34:31;;;;;;;6.72;1.80;;;;;;;;;;4938473;29;20039;-69
2022/01/18 12:37:19;;;;;;;10.05;2.28;;;;;;;;;;4921367;29;20063;-69
2022/01/18 12:39:52;;;;;;;13.68;2.17;;;;;;;;;;4921296;29;20036;-69
2022/01/18 12:44:58;;;;;;;9.50;2.30;;;;;;;;;;4938253;29;20028;-69
2022/01/18 12:47:25;;;;;;;5.72;1.60;;;;;;;;;;4921211;29;20097;-69
2022/01/18 12:49:54;;;;;;;9.77;2.45;;;;;;;;;;4938291;29;20512;-69
2022/01/18 12:52:20;;;;;;;13.30;1.85;;;;;;;;;;4921011;29;20035;-69
2022/01/18 12:54:48;;;;;;;8.65;2.20;;;;;;;;;;4920900;29;20071;-69
2022/01/18 12:57:15;;;;;;;9.95;2.00;;;;;;;;;;4921067;29;20500;-70
2022/01/18 13:00:07;;;;;;;10.00;2.30;;;;;;;;;;4920872;29;20083;-69
2022/01/18 13:02:34;;;;;;;8.82;2.70;;;;;;;;;;4928141;29;20051;-69
2022/01/18 13:05:00;;;;;;;13.48;2.50;;;;;;;;;;4937816;29;20107;-69
2022/01/18 13:07:27;;;;;;;12.32;3.10;;;;;;;;;;4936591;29;20075;-69
2022/01/18 13:09:56;;;;;;;12.25;2.40;;;;;;;;;;4936439;29;20032;-69
2022/01/18 13:12:30;;;;;;;14.80;2.65;;;;;;;;;;4937793;29;20023;-68
2022/01/18 13:14:57;;;;;;;11.02;2.63;;;;;;;;;;4937716;29;20067;-69
2022/01/18 13:23:21;;;;;;;11.55;3.22;;;;;;;;;;4937823;29;20039;-69
2022/01/18 13:25:50;;;;;;;10.10;2.50;;;;;;;;;;4936174;29;20040;-69
2022/01/18 13:28:16;;;;;;;9.93;2.75;;;;;;;;;;4937374;29;20020;-69
2022/01/18 13:30:42;;;;;;;10.18;2.33;;;;;;;;;;4937330;29;20028;-69
2022/01/18 13:33:11;;;;;;;16.33;3.25;;;;;;;;;;4936077;29;20023;-68
2022/01/18 13:35:56;;;;;;;10.07;2.53;;;;;;;;;;4937738;29;20122;-68
2022/01/18 13:38:23;;;;;;;16.33;2.70;;;;;;;;;;4935914;29;20624;-68
2022/01/18 13:40:54;;;;;;;9.93;3.05;;;;;;;;;;4937414;29;20405;-68
2022/01/18 13:43:26;;;;;;;14.57;2.63;;;;;;;;;;4920016;29;20047;-69
2022/01/18 13:45:52;;;;;;;11.57;2.92;;;;;;;;;;4935939;29;20473;-69
2022/01/18 13:48:18;;;;;;;13.25;2.58;;;;;;;;;;4935757;29;20027;-68
2022/01/18 13:50:56;;;;;;;14.07;2.67;;;;;;;;;;4935823;29;20039;-69
2022/01/18 13:53:23;;;;;;;12.18;2.60;;;;;;;;;;4935741;29;20524;-69
2022/01/18 13:55:58;;;;;;;16.05;3.22;;;;;;;;;;4935695;29;20126;-69
2022/01/18 13:58:30;;;;;;;10.75;2.42;;;;;;;;;;4937039;29;20523;-69
2022/01/18 14:01:06;;;;;;;12.23;2.85;;;;;;;;;;4935516;29;20067;-68
2022/01/18 14:03:37;;;;;;;18.33;2.83;;;;;;;;;;4919863;29;20035;-68
2022/01/18 14:06:03;;;;;;;10.93;2.90;;;;;;;;;;4919697;29;20133;-68
2022/01/18 14:08:38;;;;;;;9.32;2.20;;;;;;;;;;4919505;29;20035;-68
2022/01/18 14:11:09;;;;;;;13.23;2.13;;;;;;;;;;4923252;29;20051;-68
2022/01/18 14:13:36;;;;;;;12.02;2.90;;;;;;;;;;4919672;29;20122;-69
2022/01/18 14:16:03;;;;;;;16.52;2.22;;;;;;;;;;4919515;29;20071;-68
2022/01/18 14:18:29;;;;;;;10.27;2.13;;;;;;;;;;4936492;29;20131;-68
2022/01/18 14:20:55;;;;;;;14.75;2.50;;;;;;;;;;4919478;29;20507;-68
2022/01/18 14:23:22;;;;;;;10.30;2.53;;;;;;;;;;4919410;29;20051;-69
2022/01/18 14:25:50;;;;;;;8.80;1.90;;;;;;;;;;4919438;29;20028;-69
2022/01/18 14:28:17;;;;;;;6.93;1.90;;;;;;;;;;4936489;29;20079;-69
2022/01/18 14:30:44;;;;;;;10.70;2.08;;;;;;;;;;4936263;29;20080;-69
2022/01/18 14:33:13;;;;;;;13.77;2.60;;;;;;;;;;4936805;29;20059;-69
2022/01/18 14:35:41;;;;;;;12.27;2.80;;;;;;;;;;4936334;29;20099;-69
2022/01/18 14:38:11;;;;;;;16.60;2.58;;;;;;;;;;4918950;29;20047;-69
2022/01/18 14:40:42;;;;;;;12.25;2.65;;;;;;;;;;4918628;29;20031;-69
2022/01/18 14:43:15;;;;;;;10.32;2.72;;;;;;;;;;4919146;29;20553;-69
2022/01/18 14:48:24;;;;;;;11.55;2.55;;;;;;;;;;4936336;29;20048;-69
2022/01/18 14:50:50;;;;;;;15.70;2.92;;;;;;;;;;4935065;29;20443;-69
2022/01/18 14:53:17;;;;;;;13.38;2.78;;;;;;;;;;4918766;29;20150;-69
2022/01/18 14:55:44;;;;;;;8.55;2.28;;;;;;;;;;4935613;29;20028;-70
2022/01/18 14:58:10;;;;;;;16.60;3.00;;;;;;;;;;4935447;29;20038;-72
2022/01/18 15:00:37;;;;;;;12.18;2.90;;;;;;;;;;4918436;29;20478;-70
2022/01/18 15:03:05;;;;;;;10.93;3.00;;;;;;;;;;4935994;29;20350;-73
2022/01/18 15:05:32;;;;;;;21.77;2.92;;;;;;;;;;4936026;29;20488;-73
2022/01/18 15:07:59;;;;;;;11.10;3.22;;;;;;;;;;4936035;29;20023;-72
2022/01/18 15:10:25;;;;;;;13.52;3.00;;;;;;;;;;4935978;29;20040;-72
2022/01/18 15:12:53;;;;;;;10.45;2.33;;;;;;;;;;4935973;29;20098;-73
2022/01/18 15:15:20;;;;;;;11.40;2.65;;;;;;;;;;4936069;29;20043;-73
2022/01/18 15:17:50;;;;;;;12.30;3.10;;;;;;;;;;4936004;29;20488;-72
2022/01/18 15:20:18;;;;;;;18.27;4.70;;;;;;;;;;4918919;29;20401;-71
2022/01/18 15:22:45;;;;;;;9.57;2.85;;;;;;;;;;4918889;29;20027;-72
2022/01/18 15:25:13;;;;;;;11.80;2.47;;;;;;;;;;4935919;29;20039;-73
2022/01/18 15:27:39;;;;;;;14.82;2.80;;;;;;;;;;4935889;29;20035;-73
2022/01/18 15:30:10;;;;;;;17.20;3.33;;;;;;;;;;4935674;29;20517;-72
2022/01/18 15:32:37;;;;;;;12.57;2.97;;;;;;;;;;4918795;29;20032;-73
2022/01/18 15:35:04;;;;;;;9.52;2.80;;;;;;;;;;4935834;29;20035;-73
2022/01/18 15:37:30;;;;;;;21.02;2.90;;;;;;;;;;4935768;29;20024;-72
2022/01/18 15:40:00;;;;;;;8.88;2.42;;;;;;;;;;4918698;29;20039;-72
2022/01/18 15:42:26;;;;;;;10.32;2.20;;;;;;;;;;4918710;29;20119;-71
2022/01/18 15:44:52;;;;;;;10.20;2.70;;;;;;;;;;4918739;29;20028;-72
2022/01/18 15:47:18;;;;;;;11.10;2.97;;;;;;;;;;4918714;29;20063;-71
2022/01/18 15:49:44;;;;;;;13.32;3.08;;;;;;;;;;4918616;29;20126;-70
2022/01/18 15:52:11;;;;;;;16.92;3.47;;;;;;;;;;4918696;29;20024;-69
2022/01/18 15:54:38;;;;;;;7.53;2.38;;;;;;;;;;4918636;29;20031;-70
2022/01/18 15:57:07;;;;;;;13.77;2.38;;;;;;;;;;4919674;29;20027;-71
2022/01/18 15:59:40;;;;;;;10.45;2.28;;;;;;;;;;4941243;29;20084;-70
2022/01/18 16:02:07;;;;;;;18.65;2.35;;;;;;;;;;4935666;29;20055;-70
2022/01/18 16:04:33;;;;;;;15.07;2.75;;;;;;;;;;4937875;29;20028;-70
2022/01/18 16:07:00;;;;;;;8.98;2.50;;;;;;;;;;4937815;29;20032;-72
2022/01/18 16:09:26;;;;;;;14.43;3.00;;;;;;;;;;4938983;29;20075;-72
2022/01/18 16:11:53;;;;;;;17.65;3.33;;;;;;;;;;4937762;29;20027;-72
2022/01/18 16:14:20;;;;;;;18.02;3.20;;;;;;;;;;4937774;29;20035;-72
2022/01/18 16:16:46;;;;;;;12.50;2.85;;;;;;;;;;4937698;29;20039;-72